Time;durP1;ratioP1;P1;durP2;ratioP2;P2;SDS_P1;SDS_P2;PMS_P1;PMS_P2;Temp;Humidity;BMP_temperature;BMP_pressure;BME280_temperature;BME280_humidity;BME280_pressure;Samples;Min_cycle;Max_cycle;Signal;HPM_P1;HPM_P2
2023/05/06 00:01:06;;;;;;;12.30;4.22;;;17.20;99.90;;;;;;5051922;28;20470;-68
2023/05/06 00:03:33;;;;;;;12.30;4.78;;;17.20;99.90;;;;;;5052403;28;20033;-68
2023/05/06 00:05:59;;;;;;;9.80;3.95;;;17.10;99.90;;;;;;5052464;28;20024;-68
2023/05/06 00:08:25;;;;;;;12.43;4.30;;;17.10;99.90;;;;;;5052030;28;20029;-68
2023/05/06 00:10:52;;;;;;;10.75;4.53;;;17.10;99.90;;;;;;5052464;28;20032;-68
2023/05/06 00:13:18;;;;;;;8.98;4.13;;;17.10;99.90;;;;;;5052199;28;20048;-68
2023/05/06 00:15:44;;;;;;;11.10;4.65;;;17.00;99.90;;;;;;5051683;28;20421;-68
2023/05/06 00:18:10;;;;;;;11.80;4.55;;;17.00;99.90;;;;;;5052203;28;20029;-67
2023/05/06 00:20:36;;;;;;;15.02;4.50;;;17.00;99.90;;;;;;5050878;28;20041;-67
2023/05/06 00:23:02;;;;;;;14.30;4.53;;;16.90;99.90;;;;;;5067413;28;20036;-67
2023/05/06 00:25:28;;;;;;;12.38;4.47;;;17.00;99.90;;;;;;5052633;28;20056;-68
2023/05/06 00:27:55;;;;;;;11.77;4.65;;;16.90;99.90;;;;;;5056198;28;20032;-68
2023/05/06 00:30:21;;;;;;;14.38;4.47;;;16.90;99.90;;;;;;5055691;28;20040;-68
2023/05/06 00:32:47;;;;;;;12.25;4.20;;;16.90;99.90;;;;;;5071657;28;20045;-68
2023/05/06 00:35:13;;;;;;;11.60;4.03;;;16.90;99.90;;;;;;5056106;28;20222;-68
2023/05/06 00:37:39;;;;;;;11.15;4.35;;;16.80;99.90;;;;;;5055756;28;20404;-68
2023/05/06 00:40:06;;;;;;;10.43;4.10;;;16.80;99.90;;;;;;5054821;28;20037;-68
2023/05/06 00:42:32;;;;;;;11.90;4.20;;;16.80;99.90;;;;;;5056073;28;20028;-68
2023/05/06 00:44:59;;;;;;;12.23;3.80;;;16.70;99.90;;;;;;5055953;28;20036;-68
2023/05/06 00:47:25;;;;;;;10.75;4.50;;;16.70;99.90;;;;;;5055459;28;20032;-68
2023/05/06 00:49:51;;;;;;;9.45;3.92;;;16.70;99.90;;;;;;5055800;28;20052;-68
2023/05/06 00:52:17;;;;;;;11.57;4.30;;;16.70;99.90;;;;;;5055514;28;20036;-68
2023/05/06 00:54:43;;;;;;;17.05;4.35;;;16.70;99.90;;;;;;5071276;28;20492;-68
2023/05/06 00:57:09;;;;;;;10.20;4.20;;;16.70;99.90;;;;;;5055824;28;20021;-68
2023/05/06 00:59:35;;;;;;;11.27;3.80;;;16.70;99.90;;;;;;5071265;28;20363;-68
2023/05/06 01:02:02;;;;;;;9.32;3.85;;;16.70;99.90;;;;;;5070545;28;20033;-68
2023/05/06 01:04:28;;;;;;;12.10;4.07;;;16.60;99.90;;;;;;5055582;28;20032;-68
2023/05/06 01:07:06;;;;;;;14.90;4.63;;;16.30;99.90;;;;;;5055358;28;20382;-68
2023/05/06 01:09:47;;;;;;;10.68;4.22;;;16.00;99.90;;;;;;5055577;28;20017;-67
2023/05/06 01:12:36;;;;;;;9.93;4.40;;;15.70;99.90;;;;;;5054298;28;20029;-67
2023/05/06 01:15:13;;;;;;;11.00;3.88;;;15.60;99.90;;;;;;5054710;28;20051;-67
2023/05/06 01:17:42;;;;;;;9.77;3.50;;;15.50;99.90;;;;;;5070428;28;20466;-68
2023/05/06 01:20:10;;;;;;;10.88;4.03;;;15.60;99.90;;;;;;5070852;28;20374;-68
2023/05/06 01:22:37;;;;;;;10.15;3.88;;;15.80;99.90;;;;;;5070220;28;20466;-68
2023/05/06 01:25:03;;;;;;;15.43;3.70;;;15.90;99.90;;;;;;5055238;28;20056;-68
2023/05/06 01:27:29;;;;;;;10.25;3.95;;;16.00;99.90;;;;;;5070585;28;20033;-67
2023/05/06 01:29:55;;;;;;;10.63;4.47;;;16.10;99.90;;;;;;5055629;28;20450;-67
2023/05/06 01:32:37;;;;;;;11.73;3.90;;;16.10;99.90;;;;;;5069991;28;20053;-68
2023/05/06 01:35:26;;;;;;;10.75;3.80;;;16.20;99.90;;;;;;5054646;28;20029;-68
2023/05/06 01:38:02;;;;;;;11.85;4.55;;;16.20;99.90;;;;;;5052304;28;20385;-67
2023/05/06 01:40:29;;;;;;;11.55;4.07;;;16.30;99.90;;;;;;5054968;28;20485;-68
2023/05/06 01:42:55;;;;;;;10.40;4.32;;;16.30;99.90;;;;;;5053914;28;20025;-68
2023/05/06 01:45:21;;;;;;;9.63;4.03;;;16.40;99.90;;;;;;5053299;28;20087;-67
2023/05/06 01:47:47;;;;;;;12.55;4.28;;;16.30;99.90;;;;;;5070279;28;20033;-67
2023/05/06 01:50:14;;;;;;;11.77;3.92;;;16.00;99.90;;;;;;5053181;28;20482;-68
2023/05/06 01:52:40;;;;;;;13.73;4.10;;;15.80;99.90;;;;;;5053628;28;20055;-67
2023/05/06 01:55:06;;;;;;;12.55;3.97;;;15.50;99.90;;;;;;5054619;28;20029;-67
2023/05/06 01:57:32;;;;;;;7.30;3.92;;;15.30;99.90;;;;;;5054556;28;20032;-67
2023/05/06 01:59:58;;;;;;;9.55;3.75;;;15.30;99.90;;;;;;5054480;28;20029;-67
2023/05/06 02:02:25;;;;;;;6.22;3.58;;;15.50;99.90;;;;;;5064621;28;20483;-68
2023/05/06 02:04:51;;;;;;;10.20;4.10;;;15.70;99.90;;;;;;5050147;28;20048;-68
2023/05/06 02:07:17;;;;;;;12.05;4.00;;;15.90;99.90;;;;;;5049358;28;20374;-68
2023/05/06 02:09:43;;;;;;;9.68;3.97;;;16.00;99.90;;;;;;5053086;28;20040;-68
2023/05/06 02:12:10;;;;;;;9.82;3.95;;;15.90;99.90;;;;;;5052921;28;20033;-68
2023/05/06 02:14:36;;;;;;;12.85;3.80;;;15.60;99.90;;;;;;5052585;28;20466;-68
2023/05/06 02:17:03;;;;;;;16.65;4.35;;;15.30;99.90;;;;;;5052144;28;20033;-68
2023/05/06 02:19:30;;;;;;;11.38;4.10;;;15.30;99.90;;;;;;5052457;28;20043;-67
2023/05/06 02:21:56;;;;;;;8.48;4.78;;;15.30;99.90;;;;;;5067849;28;20537;-68
2023/05/06 02:24:22;;;;;;;9.57;4.15;;;15.30;99.90;;;;;;5052468;28;20037;-67
2023/05/06 02:26:48;;;;;;;17.02;5.00;;;15.20;99.90;;;;;;5052737;28;20033;-67
2023/05/06 02:29:14;;;;;;;10.85;4.88;;;15.10;99.90;;;;;;5051306;28;20033;-68
2023/05/06 02:31:41;;;;;;;14.50;4.55;;;15.10;99.90;;;;;;5052043;28;20044;-67
2023/05/06 02:34:07;;;;;;;12.10;4.95;;;15.00;99.90;;;;;;5052015;28;20045;-67
2023/05/06 02:36:34;;;;;;;10.68;4.20;;;14.80;99.90;;;;;;5051413;28;20377;-67
2023/05/06 02:39:00;;;;;;;13.30;4.72;;;14.80;99.90;;;;;;5053842;28;20033;-68
2023/05/06 02:41:26;;;;;;;12.98;4.40;;;14.60;99.90;;;;;;5053861;28;20033;-67
2023/05/06 02:43:52;;;;;;;10.38;4.18;;;14.60;99.90;;;;;;5053694;28;20033;-68
2023/05/06 02:46:18;;;;;;;11.50;5.18;;;14.60;99.90;;;;;;5053218;28;20037;-68
2023/05/06 02:48:45;;;;;;;11.50;4.65;;;14.60;99.90;;;;;;5052720;28;20053;-68
2023/05/06 02:51:11;;;;;;;8.85;4.15;;;14.60;99.90;;;;;;5068898;28;20033;-67
2023/05/06 02:53:37;;;;;;;14.07;4.47;;;14.60;99.90;;;;;;5053531;28;20041;-68
2023/05/06 02:56:04;;;;;;;12.52;4.28;;;14.60;99.90;;;;;;5051851;28;20044;-68
2023/05/06 02:58:30;;;;;;;16.52;4.75;;;14.50;99.90;;;;;;5053498;28;20029;-68
2023/05/06 03:00:56;;;;;;;8.52;4.47;;;14.60;99.90;;;;;;5068415;28;20037;-68
2023/05/06 03:03:23;;;;;;;11.23;4.40;;;14.60;99.90;;;;;;5053102;28;20033;-67
2023/05/06 03:05:49;;;;;;;9.90;4.50;;;14.60;99.90;;;;;;5053287;28;20036;-67
2023/05/06 03:08:15;;;;;;;9.20;4.40;;;14.70;99.90;;;;;;5053284;28;20521;-68
2023/05/06 03:10:41;;;;;;;16.55;4.93;;;14.90;99.90;;;;;;5053260;28;20025;-68
2023/05/06 03:13:07;;;;;;;12.43;4.22;;;14.80;99.90;;;;;;5068526;28;20043;-68
2023/05/06 03:15:33;;;;;;;14.98;5.00;;;14.70;99.90;;;;;;5052711;28;20033;-68
2023/05/06 03:18:00;;;;;;;13.52;4.68;;;14.80;99.90;;;;;;5050975;28;20040;-67
2023/05/06 03:20:27;;;;;;;10.13;4.75;;;15.00;99.90;;;;;;5068638;28;20025;-68
2023/05/06 03:22:54;;;;;;;12.18;5.20;;;15.10;99.90;;;;;;5052995;28;20017;-68
2023/05/06 03:25:20;;;;;;;10.80;4.95;;;15.10;99.90;;;;;;5053146;28;20037;-68
2023/05/06 03:27:46;;;;;;;10.25;4.38;;;14.90;99.90;;;;;;5052814;28;20036;-68
2023/05/06 03:30:13;;;;;;;8.70;4.75;;;14.80;99.90;;;;;;5052465;28;20029;-68
2023/05/06 03:32:39;;;;;;;16.35;5.45;;;14.80;99.90;;;;;;5052767;28;20056;-68
2023/05/06 03:35:07;;;;;;;8.82;4.60;;;14.70;99.90;;;;;;5052907;28;20028;-68
2023/05/06 03:37:33;;;;;;;13.98;5.10;;;14.50;99.90;;;;;;5052675;28;20052;-68
2023/05/06 03:39:59;;;;;;;10.40;4.90;;;14.40;99.90;;;;;;5052836;28;20036;-67
2023/05/06 03:42:25;;;;;;;10.90;5.00;;;14.30;99.90;;;;;;5052766;28;20462;-67
2023/05/06 03:44:51;;;;;;;12.02;4.90;;;14.20;99.90;;;;;;5052676;28;20040;-68
2023/05/06 03:47:17;;;;;;;12.98;5.10;;;14.20;99.90;;;;;;5051892;28;20195;-67
2023/05/06 03:49:44;;;;;;;13.23;5.15;;;14.20;99.90;;;;;;5052525;28;20057;-68
2023/05/06 03:52:10;;;;;;;13.80;5.28;;;14.30;99.90;;;;;;5052575;28;20021;-68
2023/05/06 03:54:36;;;;;;;10.10;4.50;;;14.30;99.90;;;;;;5068024;28;20041;-68
2023/05/06 03:57:02;;;;;;;14.18;4.88;;;14.30;99.90;;;;;;5052499;28;20048;-68
2023/05/06 03:59:28;;;;;;;11.48;4.60;;;14.30;99.90;;;;;;5052476;28;20386;-68
2023/05/06 04:01:55;;;;;;;12.10;4.68;;;14.20;99.90;;;;;;5050785;28;20036;-68
2023/05/06 04:04:21;;;;;;;20.20;5.07;;;14.30;99.90;;;;;;5052299;28;20043;-68
2023/05/06 04:06:47;;;;;;;7.80;4.75;;;14.40;99.90;;;;;;5052382;28;20455;-66
2023/05/06 04:09:13;;;;;;;12.07;4.95;;;14.40;99.90;;;;;;5052422;28;20028;-67
2023/05/06 04:11:39;;;;;;;8.93;5.32;;;14.50;99.90;;;;;;5052364;28;20478;-67
2023/05/06 04:14:05;;;;;;;10.93;4.80;;;14.50;99.90;;;;;;5052345;28;20462;-67
2023/05/06 04:16:31;;;;;;;14.32;5.47;;;14.40;99.90;;;;;;5049958;28;20040;-67
2023/05/06 04:18:57;;;;;;;11.65;5.13;;;14.40;99.90;;;;;;5052244;28;20061;-67
2023/05/06 04:21:23;;;;;;;14.23;5.22;;;14.40;99.90;;;;;;5052158;28;20025;-67
2023/05/06 04:23:49;;;;;;;11.63;5.53;;;14.40;99.90;;;;;;5052229;28;20040;-67
2023/05/06 04:26:15;;;;;;;11.05;4.97;;;14.40;99.90;;;;;;5052193;28;20032;-67
2023/05/06 04:28:41;;;;;;;10.23;4.85;;;14.40;99.90;;;;;;5052052;28;20029;-67
2023/05/06 04:31:08;;;;;;;9.68;4.90;;;14.40;99.90;;;;;;5051139;28;20041;-67
2023/05/06 04:33:34;;;;;;;9.00;5.22;;;14.50;99.90;;;;;;5051907;28;20037;-67
2023/05/06 04:36:00;;;;;;;8.30;4.50;;;14.30;99.90;;;;;;5051926;28;20029;-67
2023/05/06 04:38:29;;;;;;;12.02;5.15;;;14.30;99.90;;;;;;5052032;28;20029;-67
2023/05/06 04:40:55;;;;;;;12.38;5.00;;;14.20;99.90;;;;;;5050725;28;20040;-67
2023/05/06 04:43:21;;;;;;;10.85;4.82;;;14.50;99.90;;;;;;5051742;28;20025;-67
2023/05/06 04:45:51;;;;;;;10.45;4.85;;;14.50;99.90;;;;;;5051329;28;20033;-67
2023/05/06 04:48:17;;;;;;;10.00;4.95;;;14.40;99.90;;;;;;5051687;28;20044;-67
2023/05/06 04:50:44;;;;;;;13.90;4.90;;;14.30;99.90;;;;;;5051954;28;20108;-67
2023/05/06 04:53:11;;;;;;;8.65;4.50;;;14.30;99.90;;;;;;5051691;28;20402;-67
2023/05/06 04:55:37;;;;;;;8.15;5.00;;;14.20;99.90;;;;;;5051930;28;20040;-67
2023/05/06 04:58:03;;;;;;;11.30;4.80;;;14.10;99.90;;;;;;5051520;28;20036;-67
2023/05/06 05:00:29;;;;;;;13.75;5.38;;;14.10;99.90;;;;;;5066810;28;20032;-67
2023/05/06 05:02:55;;;;;;;11.50;4.85;;;14.20;99.90;;;;;;5051880;28;20029;-67
2023/05/06 05:05:22;;;;;;;14.88;4.90;;;14.20;99.90;;;;;;5051726;28;20499;-67
2023/05/06 05:07:49;;;;;;;10.57;4.88;;;14.30;99.90;;;;;;5066806;28;20045;-67
2023/05/06 05:10:15;;;;;;;11.13;4.90;;;14.30;99.90;;;;;;5051787;28;20032;-67
2023/05/06 05:12:41;;;;;;;10.65;4.45;;;14.30;99.90;;;;;;5069169;28;20033;-67
2023/05/06 05:15:07;;;;;;;9.70;4.93;;;14.30;99.90;;;;;;5054918;28;20033;-67
2023/05/06 05:17:34;;;;;;;12.93;4.50;;;14.30;99.90;;;;;;5055394;28;20028;-67
2023/05/06 05:20:00;;;;;;;12.00;4.63;;;14.30;99.90;;;;;;5053713;28;20470;-67
2023/05/06 05:22:26;;;;;;;12.07;4.50;;;14.30;99.90;;;;;;5055390;28;20036;-67
2023/05/06 05:24:52;;;;;;;15.30;4.80;;;14.30;99.90;;;;;;5055384;28;20052;-68
2023/05/06 05:27:19;;;;;;;12.98;4.72;;;14.20;99.90;;;;;;5053159;28;20052;-68
2023/05/06 05:29:45;;;;;;;17.00;5.22;;;14.20;99.90;;;;;;5070495;28;20029;-68
2023/05/06 05:32:11;;;;;;;11.98;5.03;;;14.30;99.90;;;;;;5054691;28;20401;-68
2023/05/06 05:34:37;;;;;;;14.02;4.60;;;14.30;99.90;;;;;;5055211;28;20489;-68
2023/05/06 05:37:03;;;;;;;11.40;4.45;;;14.20;99.90;;;;;;5070255;28;20041;-68
2023/05/06 05:39:29;;;;;;;10.07;4.20;;;14.30;99.90;;;;;;5054989;28;20481;-68
2023/05/06 05:41:55;;;;;;;10.77;4.13;;;14.40;99.90;;;;;;5054636;28;20040;-68
2023/05/06 05:44:21;;;;;;;9.73;4.40;;;14.40;99.90;;;;;;5056067;28;20462;-67
2023/05/06 05:46:48;;;;;;;15.88;4.78;;;14.30;99.90;;;;;;5069920;28;20025;-68
2023/05/06 05:49:14;;;;;;;10.82;4.50;;;14.30;99.90;;;;;;5054765;28;20053;-68
2023/05/06 05:51:40;;;;;;;11.45;4.50;;;14.40;99.90;;;;;;5054813;28;20041;-68
2023/05/06 05:54:06;;;;;;;12.75;4.72;;;14.40;99.90;;;;;;5054766;28;20050;-67
2023/05/06 05:56:33;;;;;;;12.18;4.68;;;14.40;99.90;;;;;;5054336;28;20029;-67
2023/05/06 05:58:59;;;;;;;8.48;4.25;;;14.60;99.90;;;;;;5054659;28;20033;-68
2023/05/06 06:01:25;;;;;;;8.30;4.03;;;14.70;99.90;;;;;;5052508;28;20505;-67
2023/05/06 06:03:53;;;;;;;13.20;4.47;;;14.80;99.90;;;;;;5054609;28;20029;-67
2023/05/06 06:06:19;;;;;;;9.30;4.85;;;14.90;99.90;;;;;;5054704;28;20029;-67
2023/05/06 06:08:45;;;;;;;10.00;5.20;;;14.90;99.90;;;;;;5054459;28;20036;-67
2023/05/06 06:11:11;;;;;;;15.10;5.32;;;15.00;99.90;;;;;;5054128;28;20025;-68
2023/05/06 06:13:37;;;;;;;7.88;5.20;;;15.00;99.90;;;;;;5054335;28;20041;-68
2023/05/06 06:16:03;;;;;;;15.02;5.15;;;15.10;99.90;;;;;;5053733;28;20037;-68
2023/05/06 06:18:30;;;;;;;15.13;5.43;;;15.20;99.90;;;;;;5054326;28;20025;-68
2023/05/06 06:20:56;;;;;;;10.98;5.18;;;15.10;99.90;;;;;;5054323;28;20032;-68
2023/05/06 06:23:23;;;;;;;8.07;4.88;;;15.10;99.90;;;;;;5053524;28;20025;-68
2023/05/06 06:25:49;;;;;;;8.55;4.55;;;15.00;99.90;;;;;;5053819;28;20029;-68
2023/05/06 06:28:15;;;;;;;10.38;4.75;;;15.10;99.90;;;;;;5054051;28;20025;-68
2023/05/06 06:30:41;;;;;;;10.25;4.95;;;15.30;99.90;;;;;;5053626;28;20064;-68
2023/05/06 06:33:07;;;;;;;10.23;4.85;;;15.30;99.90;;;;;;5053922;28;20037;-68
2023/05/06 06:35:34;;;;;;;14.85;4.95;;;15.30;99.90;;;;;;5053892;28;20037;-66
2023/05/06 06:38:01;;;;;;;10.82;4.60;;;15.30;99.90;;;;;;5053761;28;20044;-68
2023/05/06 06:40:27;;;;;;;10.00;3.97;;;15.40;99.90;;;;;;5053540;28;20040;-68
2023/05/06 06:42:53;;;;;;;9.85;4.32;;;15.50;99.90;;;;;;5053870;28;20036;-67
2023/05/06 06:45:20;;;;;;;9.30;4.30;;;15.50;99.90;;;;;;5053170;28;20377;-67
2023/05/06 06:47:46;;;;;;;11.90;4.20;;;15.30;99.90;;;;;;5053615;28;20029;-67
2023/05/06 06:50:12;;;;;;;9.48;4.80;;;15.30;99.90;;;;;;5069028;28;20064;-67
2023/05/06 06:52:38;;;;;;;7.88;4.18;;;15.40;99.90;;;;;;5053566;28;20033;-67
2023/05/06 06:55:05;;;;;;;8.23;4.05;;;15.40;99.90;;;;;;5053251;28;20462;-67
2023/05/06 06:57:31;;;;;;;12.63;4.40;;;15.40;99.90;;;;;;5053541;28;20029;-68
2023/05/06 06:59:57;;;;;;;10.73;4.13;;;15.50;99.90;;;;;;5053463;28;20041;-67
2023/05/06 07:02:23;;;;;;;8.52;4.20;;;15.50;99.90;;;;;;5051331;28;20418;-67
2023/05/06 07:04:49;;;;;;;9.82;4.40;;;15.70;99.90;;;;;;5053567;28;20032;-67
2023/05/06 07:07:15;;;;;;;9.10;4.60;;;15.70;99.90;;;;;;5053249;28;20025;-67
2023/05/06 07:09:43;;;;;;;8.90;4.18;;;15.70;99.90;;;;;;5053018;28;20028;-67
2023/05/06 07:12:09;;;;;;;12.15;5.28;;;16.00;99.90;;;;;;5053326;28;20029;-67
2023/05/06 07:14:35;;;;;;;9.63;5.60;;;16.00;99.90;;;;;;5053100;28;20044;-67
2023/05/06 07:17:01;;;;;;;11.35;4.82;;;15.90;99.90;;;;;;5068234;28;20029;-67
2023/05/06 07:19:27;;;;;;;11.38;4.80;;;15.90;99.90;;;;;;5053178;28;20033;-67
2023/05/06 07:21:54;;;;;;;11.55;5.40;;;15.90;99.90;;;;;;5053061;28;20040;-67
2023/05/06 07:24:21;;;;;;;10.18;4.57;;;15.90;99.90;;;;;;5068179;28;20033;-67
2023/05/06 07:26:47;;;;;;;9.88;5.30;;;16.00;99.90;;;;;;5053025;28;20025;-67
2023/05/06 07:29:13;;;;;;;11.43;4.80;;;16.10;99.90;;;;;;5052850;28;20052;-67
2023/05/06 07:31:39;;;;;;;11.27;4.60;;;16.30;99.90;;;;;;5052436;28;20032;-67
2023/05/06 07:34:06;;;;;;;11.50;4.70;;;16.50;99.90;;;;;;5052926;28;20423;-67
2023/05/06 07:36:39;;;;;;;9.27;4.45;;;16.50;99.90;;;;;;5052620;28;20036;-67
2023/05/06 07:39:09;;;;;;;6.88;4.32;;;16.60;99.90;;;;;;5052468;28;20489;-67
2023/05/06 07:41:35;;;;;;;8.07;5.28;;;16.60;99.90;;;;;;5052805;28;20025;-67
2023/05/06 07:44:02;;;;;;;9.18;4.35;;;16.70;99.90;;;;;;5052627;28;20036;-67
2023/05/06 07:46:28;;;;;;;11.05;5.35;;;16.80;99.90;;;;;;5052113;28;20041;-67
2023/05/06 07:48:54;;;;;;;7.95;4.75;;;16.90;99.90;;;;;;5067979;28;20056;-67
2023/05/06 07:51:21;;;;;;;8.57;4.60;;;17.00;99.90;;;;;;5052569;28;20040;-67
2023/05/06 07:53:47;;;;;;;11.75;5.30;;;17.10;99.90;;;;;;5052066;28;20037;-67
2023/05/06 07:56:13;;;;;;;6.30;3.75;;;17.20;99.90;;;;;;5052501;28;20029;-67
2023/05/06 07:58:39;;;;;;;9.02;4.60;;;17.30;99.90;;;;;;5067965;28;20029;-67
2023/05/06 08:01:05;;;;;;;7.22;3.90;;;17.50;99.90;;;;;;5051856;28;20029;-67
2023/05/06 08:03:31;;;;;;;8.63;4.40;;;17.60;99.90;;;;;;5052463;28;20025;-67
2023/05/06 08:05:58;;;;;;;6.13;4.60;;;17.80;99.90;;;;;;5052378;28;20032;-67
2023/05/06 08:08:26;;;;;;;11.85;5.20;;;18.00;99.90;;;;;;5051920;28;20029;-66
2023/05/06 08:10:56;;;;;;;7.40;4.70;;;18.20;99.90;;;;;;5052380;28;20036;-67
2023/05/06 08:13:23;;;;;;;7.10;4.20;;;18.30;99.90;;;;;;5052348;28;20017;-67
2023/05/06 08:15:49;;;;;;;7.97;5.72;;;18.40;99.90;;;;;;5051752;28;20036;-66
2023/05/06 08:18:15;;;;;;;6.32;4.97;;;18.30;99.90;;;;;;5052202;28;20036;-67
2023/05/06 08:20:41;;;;;;;6.97;5.00;;;18.50;99.90;;;;;;5052321;28;20036;-67
2023/05/06 08:23:07;;;;;;;8.50;4.70;;;18.50;99.90;;;;;;5051841;28;20029;-68
2023/05/06 08:25:33;;;;;;;7.63;5.07;;;18.60;99.90;;;;;;5067666;28;20389;-68
2023/05/06 08:27:59;;;;;;;8.05;5.40;;;18.60;99.90;;;;;;5052101;28;20028;-66
2023/05/06 08:30:26;;;;;;;6.40;4.68;;;18.70;99.90;;;;;;5051748;28;20032;-68
2023/05/06 08:32:52;;;;;;;7.45;4.45;;;18.50;99.90;;;;;;5052335;28;20028;-66
2023/05/06 08:35:18;;;;;;;5.55;4.70;;;18.40;99.90;;;;;;5051677;28;20037;-66
2023/05/06 08:37:44;;;;;;;8.10;4.85;;;18.30;99.90;;;;;;5051846;28;20040;-66
2023/05/06 08:40:19;;;;;;;9.48;4.07;;;18.40;99.90;;;;;;5052075;28;20037;-66
2023/05/06 08:42:46;;;;;;;9.27;3.80;;;18.30;99.90;;;;;;5052031;28;20025;-67
2023/05/06 08:45:16;;;;;;;8.77;3.50;;;18.30;99.90;;;;;;5050211;28;20378;-67
2023/05/06 08:47:42;;;;;;;7.60;3.45;;;18.40;99.90;;;;;;5054254;28;20029;-67
2023/05/06 08:50:09;;;;;;;7.75;4.10;;;18.30;99.90;;;;;;5055596;28;20049;-67
2023/05/06 08:52:35;;;;;;;5.55;3.50;;;18.20;99.90;;;;;;5071230;28;20465;-66
2023/05/06 08:55:03;;;;;;;8.25;3.60;;;18.20;99.90;;;;;;5071278;28;20044;-66
2023/05/06 08:57:30;;;;;;;8.43;4.00;;;18.10;99.90;;;;;;5055792;28;20028;-66
2023/05/06 08:59:56;;;;;;;6.32;3.20;;;18.00;99.90;;;;;;5055764;28;20037;-67
2023/05/06 09:02:23;;;;;;;7.00;4.10;;;18.00;99.90;;;;;;5055228;28;20036;-67
2023/05/06 09:04:49;;;;;;;9.15;4.45;;;18.00;99.90;;;;;;5070720;28;20508;-67
2023/05/06 09:07:15;;;;;;;5.38;3.80;;;18.00;99.90;;;;;;5054277;28;20040;-67
2023/05/06 09:09:41;;;;;;;8.27;4.40;;;18.10;99.90;;;;;;5055614;28;20024;-67
2023/05/06 09:12:12;;;;;;;5.28;3.88;;;18.10;99.90;;;;;;5071099;28;20025;-67
2023/05/06 09:14:38;;;;;;;7.22;3.90;;;18.00;99.90;;;;;;5055345;28;20032;-67
2023/05/06 09:17:05;;;;;;;6.35;3.47;;;18.10;99.90;;;;;;5054876;28;20036;-67
2023/05/06 09:19:31;;;;;;;6.55;3.42;;;18.10;99.90;;;;;;5053980;28;20048;-67
2023/05/06 09:21:58;;;;;;;7.57;3.70;;;18.10;99.90;;;;;;5070815;28;20021;-67
2023/05/06 09:24:24;;;;;;;6.70;3.78;;;18.30;99.90;;;;;;5055341;28;20029;-67
2023/05/06 09:26:54;;;;;;;6.63;3.40;;;18.50;99.90;;;;;;5070720;28;20025;-66
2023/05/06 09:29:20;;;;;;;5.70;3.23;;;18.60;99.90;;;;;;5055210;28;20025;-67
2023/05/06 09:31:46;;;;;;;9.68;3.55;;;18.60;99.90;;;;;;5054643;28;20482;-67
2023/05/06 09:34:13;;;;;;;7.22;3.83;;;18.70;99.90;;;;;;5054825;28;20371;-67
2023/05/06 09:36:39;;;;;;;6.13;3.90;;;18.70;99.90;;;;;;5054912;28;20482;-66
2023/05/06 09:39:06;;;;;;;5.63;3.72;;;18.90;99.90;;;;;;5054990;28;20029;-66
2023/05/06 09:41:32;;;;;;;7.57;4.53;;;19.20;99.90;;;;;;5054945;28;20040;-66
2023/05/06 09:43:58;;;;;;;6.38;4.15;;;19.30;99.90;;;;;;5054961;28;20029;-67
2023/05/06 09:46:25;;;;;;;8.40;4.70;;;19.40;99.90;;;;;;5054317;28;20044;-67
2023/05/06 09:48:52;;;;;;;4.72;4.32;;;19.50;99.90;;;;;;5054637;28;20607;-67
2023/05/06 09:51:19;;;;;;;6.00;3.88;;;19.30;99.90;;;;;;5053070;28;20045;-67
2023/05/06 09:53:45;;;;;;;7.38;4.30;;;19.40;99.90;;;;;;5054601;28;20036;-67
2023/05/06 09:56:12;;;;;;;5.40;4.75;;;19.50;99.90;;;;;;5053485;28;20037;-67
2023/05/06 09:58:39;;;;;;;5.53;5.03;;;19.50;99.90;;;;;;5053469;28;20401;-67
2023/05/06 10:01:05;;;;;;;6.30;4.50;;;19.50;99.90;;;;;;5069616;28;20036;-67
2023/05/06 10:03:32;;;;;;;5.93;4.95;;;19.80;99.90;;;;;;5054254;28;20025;-67
2023/05/06 10:06:02;;;;;;;8.27;5.28;;;19.90;99.90;;;;;;5054511;28;20078;-67
2023/05/06 10:08:28;;;;;;;6.35;5.13;;;20.00;99.90;;;;;;5054491;28;20025;-67
2023/05/06 10:10:54;;;;;;;5.85;5.28;;;20.10;99.90;;;;;;5054431;28;20037;-67
2023/05/06 10:13:21;;;;;;;5.57;3.75;;;20.20;99.90;;;;;;5054528;28;20028;-67
2023/05/06 10:15:48;;;;;;;7.20;5.00;;;20.30;99.90;;;;;;5053864;28;20033;-67
2023/05/06 10:18:19;;;;;;;4.68;3.70;;;20.50;99.90;;;;;;5053952;28;20037;-67
2023/05/06 10:20:46;;;;;;;6.28;3.47;;;20.50;99.90;;;;;;5054406;28;20383;-67
2023/05/06 10:23:20;;;;;;;4.60;3.50;;;20.20;99.90;;;;;;5054215;28;20032;-67
2023/05/06 10:25:50;;;;;;;5.28;4.43;;;20.20;99.90;;;;;;5069632;28;20021;-67
2023/05/06 10:28:16;;;;;;;3.90;3.50;;;20.40;99.90;;;;;;5069001;28;20489;-67
2023/05/06 10:30:42;;;;;;;5.35;4.38;;;20.70;99.90;;;;;;5069284;28;20040;-67
2023/05/06 10:33:09;;;;;;;5.95;4.28;;;20.90;99.90;;;;;;5052400;28;20029;-68
2023/05/06 10:35:52;;;;;;;7.30;4.43;;;21.10;99.90;;;;;;5054024;28;20040;-67
2023/05/06 10:38:34;;;;;;;5.55;4.07;;;21.30;99.90;;;;;;5069353;28;20382;-67
2023/05/06 10:41:00;;;;;;;6.55;4.75;;;21.60;99.90;;;;;;5053729;28;20033;-68
2023/05/06 10:43:31;;;;;;;4.47;4.03;;;21.80;99.90;;;;;;5052551;28;20025;-68
2023/05/06 10:45:58;;;;;;;6.20;4.38;;;21.90;99.90;;;;;;5051275;28;20025;-68
2023/05/06 10:48:24;;;;;;;8.07;5.03;;;22.10;99.90;;;;;;5053819;28;20387;-68
2023/05/06 10:50:50;;;;;;;5.65;4.43;;;22.00;99.90;;;;;;5052061;28;20029;-68
2023/05/06 10:53:16;;;;;;;5.43;4.95;;;22.10;99.90;;;;;;5068972;28;20040;-68
2023/05/06 10:55:42;;;;;;;5.53;5.13;;;22.20;99.90;;;;;;5068944;28;20037;-68
2023/05/06 10:58:13;;;;;;;6.20;5.03;;;22.30;99.90;;;;;;5053692;28;20032;-68
2023/05/06 11:00:40;;;;;;;7.95;4.88;;;22.50;99.90;;;;;;5052799;28;20037;-68
2023/05/06 11:03:07;;;;;;;8.88;4.90;;;22.70;99.90;;;;;;5053477;28;20025;-68
2023/05/06 11:05:50;;;;;;;9.18;7.00;;;22.70;99.90;;;;;;5053509;28;20056;-68
2023/05/06 11:08:24;;;;;;;8.43;7.75;;;22.80;99.90;;;;;;5053502;28;20029;-68
2023/05/06 11:10:51;;;;;;;9.77;8.85;;;22.90;99.90;;;;;;5053262;28;20036;-67
2023/05/06 11:13:26;;;;;;;10.40;9.15;;;22.90;99.90;;;;;;5053301;28;20025;-65
2023/05/06 11:15:53;;;;;;;8.73;8.02;;;22.90;99.90;;;;;;5052336;28;20037;-68
2023/05/06 11:18:26;;;;;;;12.85;11.75;;;23.00;99.90;;;;;;5051637;28;20029;-67
2023/05/06 11:21:01;;;;;;;12.50;11.45;;;23.10;99.90;;;;;;5053308;28;20036;-67
2023/05/06 11:23:48;;;;;;;13.20;12.20;;;23.20;99.90;;;;;;5053195;28;20025;-67
2023/05/06 11:26:14;;;;;;;7.80;7.20;;;23.00;99.90;;;;;;5053111;28;20028;-67
2023/05/06 11:28:45;;;;;;;12.60;11.70;;;23.00;99.90;;;;;;5053054;28;20028;-68
2023/05/06 11:31:11;;;;;;;12.68;11.77;;;23.20;99.90;;;;;;5067138;28;20037;-67
2023/05/06 11:33:43;;;;;;;13.30;12.27;;;23.40;99.90;;;;;;5052963;28;20029;-67
2023/05/06 11:36:13;;;;;;;14.43;13.30;;;23.60;99.90;;;;;;5051508;28;20366;-67
2023/05/06 11:38:50;;;;;;;12.07;11.27;;;23.80;99.90;;;;;;5034982;28;20048;-67
2023/05/06 11:41:16;;;;;;;10.10;9.25;;;24.00;99.90;;;;;;5052683;28;20029;-67
2023/05/06 11:43:46;;;;;;;9.77;8.98;;;24.10;99.90;;;;;;5051528;28;20032;-67
2023/05/06 11:46:12;;;;;;;10.00;9.33;;;24.10;99.90;;;;;;5052163;28;20036;-67
2023/05/06 11:48:38;;;;;;;8.77;8.07;;;23.80;99.90;;;;;;5052601;28;20045;-67
2023/05/06 11:51:04;;;;;;;9.35;8.65;;;23.40;99.90;;;;;;5052624;28;20029;-67
2023/05/06 11:53:30;;;;;;;9.63;8.95;;;23.10;99.90;;;;;;5052490;28;20382;-67
2023/05/06 11:55:56;;;;;;;9.43;8.73;;;22.90;99.90;;;;;;5052470;28;20037;-67
2023/05/06 11:58:24;;;;;;;5.90;5.50;;;22.90;99.90;;;;;;5050963;28;20028;-67
2023/05/06 12:00:58;;;;;;;9.68;8.77;;;22.90;99.90;;;;;;5051941;28;20029;-67
2023/05/06 12:03:24;;;;;;;9.10;6.15;;;22.80;99.90;;;;;;5052545;28;20036;-67
2023/05/06 12:05:50;;;;;;;8.90;7.38;;;22.80;99.90;;;;;;5050763;28;20041;-67
2023/05/06 12:08:22;;;;;;;7.13;6.53;;;22.70;99.90;;;;;;5052272;28;20024;-67
2023/05/06 12:10:49;;;;;;;6.95;6.45;;;22.60;99.90;;;;;;5067421;28;20036;-67
2023/05/06 12:13:16;;;;;;;6.30;5.47;;;22.60;99.90;;;;;;5050864;28;20374;-67
2023/05/06 12:15:42;;;;;;;6.45;5.80;;;22.70;99.90;;;;;;5051874;28;20048;-67
2023/05/06 12:18:09;;;;;;;6.80;5.80;;;22.90;99.90;;;;;;5067684;28;20021;-67
2023/05/06 12:20:35;;;;;;;7.03;5.25;;;23.00;99.90;;;;;;5067884;28;20064;-67
2023/05/06 12:23:09;;;;;;;9.98;9.20;;;23.10;99.90;;;;;;5051556;28;20021;-67
2023/05/06 12:25:35;;;;;;;8.88;8.15;;;23.10;99.90;;;;;;5052281;28;20092;-67
2023/05/06 12:28:15;;;;;;;6.35;5.25;;;22.90;99.90;;;;;;5051806;28;20021;-68
2023/05/06 12:30:41;;;;;;;8.93;8.13;;;23.10;99.90;;;;;;5051678;28;20044;-67
2023/05/06 12:33:08;;;;;;;8.68;7.97;;;23.20;99.90;;;;;;5052042;28;20036;-67
2023/05/06 12:35:34;;;;;;;11.02;10.02;;;23.30;99.90;;;;;;5050601;28;20525;-68
2023/05/06 12:38:10;;;;;;;19.83;10.73;;;23.20;99.90;;;;;;5051900;28;20029;-67
2023/05/06 12:40:37;;;;;;;6.50;6.00;;;23.10;99.90;;;;;;5050898;28;20037;-67